sensor_id;sensor_type;location;lat;lon;timestamp;pressure;altitude;pressure_sealevel;temperature;humidity
23164;BME280;31429;42.674;23.350;2022-07-09T00:00:36;94651.88;;;17.31;100.00
23164;BME280;31429;42.674;23.350;2022-07-09T00:01:36;94621.56;;;17.20;100.00
23164;BME280;31429;42.674;23.350;2022-07-09T00:02:37;94620.63;;;17.21;100.00
23164;BME280;31429;42.674;23.350;2022-07-09T00:03:38;94641.44;;;17.32;100.00
23164;BME280;31429;42.674;23.350;2022-07-09T00:04:38;94634.31;;;17.36;100.00
23164;BME280;31429;42.674;23.350;2022-07-09T00:05:40;94649.81;;;17.36;100.00
23164;BME280;31429;42.674;23.350;2022-07-09T00:06:41;94646.50;;;17.34;100.00
23164;BME280;31429;42.674;23.350;2022-07-09T00:07:42;94618.97;;;17.20;100.00
23164;BME280;31429;42.674;23.350;2022-07-09T00:08:42;94643.41;;;17.41;100.00
23164;BME280;31429;42.674;23.350;2022-07-09T00:09:43;94624.19;;;17.33;100.00
23164;BME280;31429;42.674;23.350;2022-07-09T00:10:44;94623.03;;;17.24;100.00
23164;BME280;31429;42.674;23.350;2022-07-09T00:11:44;94641.22;;;17.35;100.00
23164;BME280;31429;42.674;23.350;2022-07-09T00:12:45;94638.75;;;17.34;100.00
23164;BME280;31429;42.674;23.350;2022-07-09T00:13:46;94642.97;;;17.35;100.00
23164;BME280;31429;42.674;23.350;2022-07-09T00:14:47;94623.53;;;17.29;100.00
23164;BME280;31429;42.674;23.350;2022-07-09T00:15:47;94618.78;;;17.23;100.00
23164;BME280;31429;42.674;23.350;2022-07-09T00:16:48;94647.03;;;17.39;100.00
23164;BME280;31429;42.674;23.350;2022-07-09T00:17:49;94615.78;;;17.29;100.00
23164;BME280;31429;42.674;23.350;2022-07-09T00:18:49;94633.16;;;17.40;100.00
23164;BME280;31429;42.674;23.350;2022-07-09T00:19:50;94634.81;;;17.41;100.00
23164;BME280;31429;42.674;23.350;2022-07-09T00:20:54;94637.84;;;17.47;100.00
23164;BME280;31429;42.674;23.350;2022-07-09T00:21:55;94625.63;;;17.49;100.00
23164;BME280;31429;42.674;23.350;2022-07-09T00:22:55;94625.63;;;17.49;100.00
23164;BME280;31429;42.674;23.350;2022-07-09T00:23:56;94629.38;;;17.45;100.00
23164;BME280;31429;42.674;23.350;2022-07-09T00:24:57;94624.41;;;17.42;100.00
23164;BME280;31429;42.674;23.350;2022-07-09T00:25:57;94619.84;;;17.46;100.00
23164;BME280;31429;42.674;23.350;2022-07-09T00:26:58;94623.38;;;17.45;100.00
23164;BME280;31429;42.674;23.350;2022-07-09T00:27:59;94624.91;;;17.47;100.00
23164;BME280;31429;42.674;23.350;2022-07-09T00:28:59;94619.53;;;17.50;100.00
23164;BME280;31429;42.674;23.350;2022-07-09T00:30:00;94617.50;;;17.55;100.00
23164;BME280;31429;42.674;23.350;2022-07-09T00:31:01;94598.34;;;17.45;100.00
23164;BME280;31429;42.674;23.350;2022-07-09T00:32:02;94612.00;;;17.47;100.00
23164;BME280;31429;42.674;23.350;2022-07-09T00:33:03;94585.53;;;17.31;100.00
23164;BME280;31429;42.674;23.350;2022-07-09T00:34:03;94616.38;;;17.59;100.00
23164;BME280;31429;42.674;23.350;2022-07-09T00:35:05;94617.19;;;17.60;100.00
23164;BME280;31429;42.674;23.350;2022-07-09T00:36:07;94618.13;;;17.59;100.00
23164;BME280;31429;42.674;23.350;2022-07-09T00:37:09;94614.72;;;17.58;100.00
23164;BME280;31429;42.674;23.350;2022-07-09T00:38:10;94621.09;;;17.53;100.00
23164;BME280;31429;42.674;23.350;2022-07-09T00:39:10;94601.22;;;17.41;100.00
23164;BME280;31429;42.674;23.350;2022-07-09T00:40:11;94622.22;;;17.49;100.00
23164;BME280;31429;42.674;23.350;2022-07-09T00:41:12;94619.63;;;17.49;100.00
23164;BME280;31429;42.674;23.350;2022-07-09T00:42:12;94619.63;;;17.49;100.00
23164;BME280;31429;42.674;23.350;2022-07-09T00:43:17;94621.81;;;17.42;100.00
23164;BME280;31429;42.674;23.350;2022-07-09T00:44:18;94604.97;;;17.37;100.00
23164;BME280;31429;42.674;23.350;2022-07-09T00:45:19;94626.56;;;17.48;100.00
23164;BME280;31429;42.674;23.350;2022-07-09T00:46:19;94617.88;;;17.49;100.00
23164;BME280;31429;42.674;23.350;2022-07-09T00:47:20;94623.38;;;17.45;100.00
23164;BME280;31429;42.674;23.350;2022-07-09T00:48:21;94604.63;;;17.29;100.00
23164;BME280;31429;42.674;23.350;2022-07-09T00:49:21;94621.69;;;17.44;100.00
23164;BME280;31429;42.674;23.350;2022-07-09T00:50:23;94614.78;;;17.44;100.00
23164;BME280;31429;42.674;23.350;2022-07-09T00:51:25;94610.34;;;17.34;100.00
23164;BME280;31429;42.674;23.350;2022-07-09T00:52:27;94610.41;;;17.32;100.00
23164;BME280;31429;42.674;23.350;2022-07-09T00:53:29;94609.47;;;17.20;100.00
23164;BME280;31429;42.674;23.350;2022-07-09T00:54:29;94609.06;;;17.27;100.00
23164;BME280;31429;42.674;23.350;2022-07-09T00:55:30;94611.84;;;17.23;100.00
23164;BME280;31429;42.674;23.350;2022-07-09T00:56:31;94595.00;;;17.18;100.00
23164;BME280;31429;42.674;23.350;2022-07-09T00:57:33;94611.56;;;17.28;100.00
23164;BME280;31429;42.674;23.350;2022-07-09T00:58:35;94605.38;;;17.31;100.00
23164;BME280;31429;42.674;23.350;2022-07-09T00:59:36;94587.69;;;17.24;100.00
23164;BME280;31429;42.674;23.350;2022-07-09T01:00:38;94606.47;;;17.27;100.00
23164;BME280;31429;42.674;23.350;2022-07-09T01:01:39;94610.75;;;17.28;100.00
23164;BME280;31429;42.674;23.350;2022-07-09T01:02:40;94603.19;;;17.37;100.00
23164;BME280;31429;42.674;23.350;2022-07-09T01:03:41;94553.13;;;17.00;100.00
23164;BME280;31429;42.674;23.350;2022-07-09T01:04:42;94587.16;;;17.19;100.00
23164;BME280;31429;42.674;23.350;2022-07-09T01:05:43;94608.88;;;17.30;100.00
23164;BME280;31429;42.674;23.350;2022-07-09T01:06:45;94600.59;;;17.24;100.00
23164;BME280;31429;42.674;23.350;2022-07-09T01:07:46;94602.34;;;17.24;100.00
23164;BME280;31429;42.674;23.350;2022-07-09T01:08:47;94595.13;;;17.29;100.00
23164;BME280;31429;42.674;23.350;2022-07-09T01:09:47;94596.97;;;17.27;100.00
23164;BME280;31429;42.674;23.350;2022-07-09T01:10:50;94598.09;;;17.23;100.00
23164;BME280;31429;42.674;23.350;2022-07-09T01:11:51;94568.41;;;17.03;100.00
23164;BME280;31429;42.674;23.350;2022-07-09T01:12:53;94595.72;;;17.20;100.00
23164;BME280;31429;42.674;23.350;2022-07-09T01:13:55;94589.00;;;17.17;100.00
23164;BME280;31429;42.674;23.350;2022-07-09T01:14:56;94592.94;;;17.23;100.00
23164;BME280;31429;42.674;23.350;2022-07-09T01:15:57;94591.09;;;17.25;100.00
23164;BME280;31429;42.674;23.350;2022-07-09T01:16:58;94585.94;;;17.25;100.00
23164;BME280;31429;42.674;23.350;2022-07-09T01:18:00;94594.81;;;17.21;100.00
23164;BME280;31429;42.674;23.350;2022-07-09T01:19:03;94595.13;;;17.16;100.00
23164;BME280;31429;42.674;23.350;2022-07-09T01:20:04;94587.88;;;17.21;100.00
23164;BME280;31429;42.674;23.350;2022-07-09T01:21:06;94594.91;;;17.19;100.00
23164;BME280;31429;42.674;23.350;2022-07-09T01:22:07;94592.94;;;17.23;100.00
23164;BME280;31429;42.674;23.350;2022-07-09T01:23:08;94591.59;;;17.17;100.00
23164;BME280;31429;42.674;23.350;2022-07-09T01:24:09;94588.09;;;17.18;100.00
23164;BME280;31429;42.674;23.350;2022-07-09T01:25:10;94585.50;;;17.18;100.00
23164;BME280;31429;42.674;23.350;2022-07-09T01:26:16;94570.28;;;17.01;100.00
23164;BME280;31429;42.674;23.350;2022-07-09T01:27:20;94569.97;;;17.06;100.00
23164;BME280;31429;42.674;23.350;2022-07-09T01:28:20;94588.47;;;17.12;100.00
23164;BME280;31429;42.674;23.350;2022-07-09T01:29:21;94590.16;;;17.13;100.00
23164;BME280;31429;42.674;23.350;2022-07-09T01:30:27;94592.09;;;17.10;100.00
23164;BME280;31429;42.674;23.350;2022-07-09T01:31:28;94523.50;;;16.66;100.00
23164;BME280;31429;42.674;23.350;2022-07-09T01:32:28;94587.44;;;17.02;100.00
23164;BME280;31429;42.674;23.350;2022-07-09T01:33:29;94583.19;;;17.01;100.00
23164;BME280;31429;42.674;23.350;2022-07-09T01:34:32;94571.72;;;16.93;100.00
23164;BME280;31429;42.674;23.350;2022-07-09T01:35:33;94587.53;;;17.01;100.00
23164;BME280;31429;42.674;23.350;2022-07-09T01:36:35;94587.31;;;17.04;100.00
23164;BME280;31429;42.674;23.350;2022-07-09T01:37:36;94580.50;;;17.03;100.00
23164;BME280;31429;42.674;23.350;2022-07-09T01:38:37;94563.38;;;17.02;100.00
23164;BME280;31429;42.674;23.350;2022-07-09T01:39:37;94585.38;;;17.07;100.00
23164;BME280;31429;42.674;23.350;2022-07-09T01:40:50;94577.31;;;17.12;100.00
23164;BME280;31429;42.674;23.350;2022-07-09T01:41:50;94582.47;;;17.12;100.00
23164;BME280;31429;42.674;23.350;2022-07-09T01:42:52;94579.06;;;17.11;100.00
23164;BME280;31429;42.674;23.350;2022-07-09T01:43:53;94581.97;;;17.07;100.00
23164;BME280;31429;42.674;23.350;2022-07-09T01:44:53;94584.66;;;17.05;100.00
23164;BME280;31429;42.674;23.350;2022-07-09T01:45:54;94583.84;;;17.05;100.00
23164;BME280;31429;42.674;23.350;2022-07-09T01:46:55;94581.66;;;16.99;100.00
23164;BME280;31429;42.674;23.350;2022-07-09T01:47:55;94578.44;;;16.95;100.00
23164;BME280;31429;42.674;23.350;2022-07-09T01:48:56;94568.59;;;16.88;100.00
23164;BME280;31429;42.674;23.350;2022-07-09T01:49:57;94582.38;;;17.01;100.00
23164;BME280;31429;42.674;23.350;2022-07-09T01:50:57;94578.88;;;17.02;100.00
23164;BME280;31429;42.674;23.350;2022-07-09T01:52:00;94579.69;;;17.02;100.00
23164;BME280;31429;42.674;23.350;2022-07-09T01:53:01;94577.50;;;17.09;100.00
23164;BME280;31429;42.674;23.350;2022-07-09T01:54:02;94567.69;;;17.01;100.00
23164;BME280;31429;42.674;23.350;2022-07-09T01:55:05;94582.47;;;16.99;100.00
23164;BME280;31429;42.674;23.350;2022-07-09T01:56:06;94582.75;;;16.95;100.00
23164;BME280;31429;42.674;23.350;2022-07-09T01:57:07;94579.66;;;16.90;100.00
23164;BME280;31429;42.674;23.350;2022-07-09T01:58:08;94551.44;;;16.74;100.00
23164;BME280;31429;42.674;23.350;2022-07-09T01:59:09;94582.03;;;16.93;100.00
23164;BME280;31429;42.674;23.350;2022-07-09T02:00:10;94564.16;;;16.77;100.00
23164;BME280;31429;42.674;23.350;2022-07-09T02:01:11;94576.25;;;16.89;100.00
23164;BME280;31429;42.674;23.350;2022-07-09T02:02:12;94576.69;;;16.96;100.00
23164;BME280;31429;42.674;23.350;2022-07-09T02:03:13;94589.16;;;16.89;100.00
23164;BME280;31429;42.674;23.350;2022-07-09T02:04:14;94579.78;;;16.88;100.00
23164;BME280;31429;42.674;23.350;2022-07-09T02:05:14;94587.72;;;16.85;100.00
23164;BME280;31429;42.674;23.350;2022-07-09T02:06:15;94585.72;;;16.89;100.00
23164;BME280;31429;42.674;23.350;2022-07-09T02:07:17;94573.84;;;16.86;100.00
23164;BME280;31429;42.674;23.350;2022-07-09T02:08:18;94588.56;;;16.98;100.00
23164;BME280;31429;42.674;23.350;2022-07-09T02:09:19;94587.31;;;16.91;100.00
23164;BME280;31429;42.674;23.350;2022-07-09T02:10:20;94572.41;;;16.82;100.00
23164;BME280;31429;42.674;23.350;2022-07-09T02:11:21;94590.09;;;16.88;100.00
23164;BME280;31429;42.674;23.350;2022-07-09T02:12:21;94592.38;;;16.93;100.00
23164;BME280;31429;42.674;23.350;2022-07-09T02:13:22;94582.69;;;16.96;100.00
23164;BME280;31429;42.674;23.350;2022-07-09T02:14:23;94589.66;;;16.94;100.00
23164;BME280;31429;42.674;23.350;2022-07-09T02:15:23;94586.69;;;16.88;100.00
23164;BME280;31429;42.674;23.350;2022-07-09T02:16:24;94585.00;;;16.87;100.00
23164;BME280;31429;42.674;23.350;2022-07-09T02:17:25;94594.50;;;16.86;100.00
23164;BME280;31429;42.674;23.350;2022-07-09T02:18:25;94591.00;;;16.87;100.00
23164;BME280;31429;42.674;23.350;2022-07-09T02:19:26;94587.06;;;16.82;100.00
23164;BME280;31429;42.674;23.350;2022-07-09T02:20:27;94594.09;;;16.80;100.00
23164;BME280;31429;42.674;23.350;2022-07-09T02:21:27;94585.09;;;16.73;100.00
23164;BME280;31429;42.674;23.350;2022-07-09T02:22:29;94576.81;;;16.67;100.00
23164;BME280;31429;42.674;23.350;2022-07-09T02:23:30;94589.31;;;16.74;100.00
23164;BME280;31429;42.674;23.350;2022-07-09T02:24:31;94593.06;;;16.82;100.00
23164;BME280;31429;42.674;23.350;2022-07-09T02:25:31;94590.56;;;16.81;100.00
23164;BME280;31429;42.674;23.350;2022-07-09T02:26:32;94598.50;;;16.78;100.00
23164;BME280;31429;42.674;23.350;2022-07-09T02:27:33;94592.63;;;16.76;100.00
23164;BME280;31429;42.674;23.350;2022-07-09T02:28:33;94569.97;;;16.66;100.00
23164;BME280;31429;42.674;23.350;2022-07-09T02:29:34;94592.25;;;16.82;100.00
23164;BME280;31429;42.674;23.350;2022-07-09T02:30:35;94591.22;;;16.84;100.00
23164;BME280;31429;42.674;23.350;2022-07-09T02:31:37;94593.72;;;16.86;100.00
23164;BME280;31429;42.674;23.350;2022-07-09T02:32:37;94595.47;;;16.85;100.00
23164;BME280;31429;42.674;23.350;2022-07-09T02:33:38;94588.69;;;16.70;100.00
23164;BME280;31429;42.674;23.350;2022-07-09T02:34:39;94594.88;;;16.67;100.00
23164;BME280;31429;42.674;23.350;2022-07-09T02:35:40;94592.81;;;16.73;100.00
23164;BME280;31429;42.674;23.350;2022-07-09T02:36:41;94600.69;;;16.71;100.00
23164;BME280;31429;42.674;23.350;2022-07-09T02:37:43;94599.25;;;16.80;100.00
23164;BME280;31429;42.674;23.350;2022-07-09T02:38:44;94604.63;;;16.77;100.00
23164;BME280;31429;42.674;23.350;2022-07-09T02:39:45;94597.91;;;16.74;100.00
23164;BME280;31429;42.674;23.350;2022-07-09T02:40:46;94601.47;;;16.72;100.00
23164;BME280;31429;42.674;23.350;2022-07-09T02:41:46;94602.50;;;16.69;100.00
23164;BME280;31429;42.674;23.350;2022-07-09T02:42:47;94602.19;;;16.61;100.00
23164;BME280;31429;42.674;23.350;2022-07-09T02:43:47;94583.47;;;16.43;100.00
23164;BME280;31429;42.674;23.350;2022-07-09T02:44:48;94600.97;;;16.66;100.00
23164;BME280;31429;42.674;23.350;2022-07-09T02:45:49;94605.19;;;16.67;100.00
23164;BME280;31429;42.674;23.350;2022-07-09T02:46:51;94596.94;;;16.62;100.00
23164;BME280;31429;42.674;23.350;2022-07-09T02:47:52;94605.69;;;16.60;100.00
23164;BME280;31429;42.674;23.350;2022-07-09T02:48:53;94600.72;;;16.57;100.00
23164;BME280;31429;42.674;23.350;2022-07-09T02:49:54;94582.50;;;16.46;100.00
23164;BME280;31429;42.674;23.350;2022-07-09T02:50:55;94601.44;;;16.59;100.00
23164;BME280;31429;42.674;23.350;2022-07-09T02:51:55;94599.19;;;16.54;100.00
23164;BME280;31429;42.674;23.350;2022-07-09T02:52:59;94603.38;;;16.55;100.00
23164;BME280;31429;42.674;23.350;2022-07-09T02:54:00;94604.38;;;16.53;100.00
23164;BME280;31429;42.674;23.350;2022-07-09T02:55:01;94603.84;;;16.48;100.00
23164;BME280;31429;42.674;23.350;2022-07-09T02:56:02;94600.97;;;16.52;100.00
23164;BME280;31429;42.674;23.350;2022-07-09T02:57:03;94613.53;;;16.58;100.00
23164;BME280;31429;42.674;23.350;2022-07-09T02:58:04;94598.34;;;16.54;100.00
23164;BME280;31429;42.674;23.350;2022-07-09T02:59:05;94604.50;;;16.51;100.00
23164;BME280;31429;42.674;23.350;2022-07-09T03:00:06;94608.81;;;16.51;100.00
23164;BME280;31429;42.674;23.350;2022-07-09T03:01:07;94609.00;;;16.62;100.00
23164;BME280;31429;42.674;23.350;2022-07-09T03:02:08;94610.75;;;16.61;100.00
23164;BME280;31429;42.674;23.350;2022-07-09T03:03:09;94618.59;;;16.60;100.00
23164;BME280;31429;42.674;23.350;2022-07-09T03:04:09;94616.03;;;16.60;100.00
23164;BME280;31429;42.674;23.350;2022-07-09T03:05:10;94609.84;;;16.62;100.00
23164;BME280;31429;42.674;23.350;2022-07-09T03:06:11;94611.78;;;16.59;100.00
23164;BME280;31429;42.674;23.350;2022-07-09T03:07:13;94622.44;;;16.53;100.00
23164;BME280;31429;42.674;23.350;2022-07-09T03:08:15;94622.56;;;16.51;100.00
23164;BME280;31429;42.674;23.350;2022-07-09T03:09:16;94605.72;;;16.46;100.00
23164;BME280;31429;42.674;23.350;2022-07-09T03:10:17;94619.59;;;16.57;100.00
23164;BME280;31429;42.674;23.350;2022-07-09T03:11:18;94622.94;;;16.59;100.00
23164;BME280;31429;42.674;23.350;2022-07-09T03:12:18;94618.59;;;16.60;100.00
23164;BME280;31429;42.674;23.350;2022-07-09T03:13:19;94615.47;;;16.55;100.00
23164;BME280;31429;42.674;23.350;2022-07-09T03:14:20;94620.78;;;16.52;100.00
23164;BME280;31429;42.674;23.350;2022-07-09T03:15:21;94614.81;;;16.51;100.00
23164;BME280;31429;42.674;23.350;2022-07-09T03:16:21;94617.13;;;16.56;100.00
23164;BME280;31429;42.674;23.350;2022-07-09T03:17:22;94612.50;;;16.61;100.00
23164;BME280;31429;42.674;23.350;2022-07-09T03:18:23;94594.06;;;16.53;100.00
23164;BME280;31429;42.674;23.350;2022-07-09T03:19:23;94613.25;;;16.63;100.00
23164;BME280;31429;42.674;23.350;2022-07-09T03:20:24;94589.38;;;16.59;100.00
23164;BME280;31429;42.674;23.350;2022-07-09T03:21:25;94613.41;;;16.74;100.00
23164;BME280;31429;42.674;23.350;2022-07-09T03:22:26;94614.13;;;16.76;100.00
23164;BME280;31429;42.674;23.350;2022-07-09T03:23:28;94613.59;;;16.71;100.00
23164;BME280;31429;42.674;23.350;2022-07-09T03:24:29;94617.47;;;16.64;100.00
23164;BME280;31429;42.674;23.350;2022-07-09T03:25:29;94606.25;;;16.51;100.00
23164;BME280;31429;42.674;23.350;2022-07-09T03:26:30;94620.44;;;16.58;100.00
23164;BME280;31429;42.674;23.350;2022-07-09T03:27:31;94604.38;;;16.53;100.00
23164;BME280;31429;42.674;23.350;2022-07-09T03:28:32;94617.03;;;16.57;100.00
23164;BME280;31429;42.674;23.350;2022-07-09T03:29:33;94610.75;;;16.61;100.00
23164;BME280;31429;42.674;23.350;2022-07-09T03:30:33;94611.59;;;16.62;100.00
23164;BME280;31429;42.674;23.350;2022-07-09T03:31:34;94611.41;;;16.65;100.00
23164;BME280;31429;42.674;23.350;2022-07-09T03:32:35;94612.03;;;16.69;100.00
23164;BME280;31429;42.674;23.350;2022-07-09T03:33:36;94611.19;;;16.68;100.00
23164;BME280;31429;42.674;23.350;2022-07-09T03:34:36;94608.69;;;16.66;100.00
23164;BME280;31429;42.674;23.350;2022-07-09T03:35:37;94615.88;;;16.76;100.00
23164;BME280;31429;42.674;23.350;2022-07-09T03:36:39;94567.47;;;16.38;100.00
23164;BME280;31429;42.674;23.350;2022-07-09T03:37:40;94606.75;;;16.70;100.00
23164;BME280;31429;42.674;23.350;2022-07-09T03:38:42;94611.22;;;16.81;100.00
23164;BME280;31429;42.674;23.350;2022-07-09T03:39:43;94595.72;;;16.68;100.00
23164;BME280;31429;42.674;23.350;2022-07-09T03:40:44;94593.66;;;16.73;100.00
23164;BME280;31429;42.674;23.350;2022-07-09T03:41:44;94618.25;;;16.79;100.00
23164;BME280;31429;42.674;23.350;2022-07-09T03:42:45;94611.81;;;16.72;100.00
23164;BME280;31429;42.674;23.350;2022-07-09T03:43:45;94589.66;;;16.55;100.00
23164;BME280;31429;42.674;23.350;2022-07-09T03:44:46;94610.44;;;16.66;100.00
23164;BME280;31429;42.674;23.350;2022-07-09T03:45:47;94612.84;;;16.69;100.00
23164;BME280;31429;42.674;23.350;2022-07-09T03:46:48;94613.66;;;16.70;100.00
23164;BME280;31429;42.674;23.350;2022-07-09T03:47:49;94608.22;;;16.74;100.00
23164;BME280;31429;42.674;23.350;2022-07-09T03:48:50;94616.13;;;16.85;100.00
23164;BME280;31429;42.674;23.350;2022-07-09T03:49:51;94591.06;;;16.73;100.00
23164;BME280;31429;42.674;23.350;2022-07-09T03:50:52;94605.16;;;16.82;100.00
23164;BME280;31429;42.674;23.350;2022-07-09T03:51:53;94611.97;;;16.83;100.00
23164;BME280;31429;42.674;23.350;2022-07-09T03:52:54;94613.53;;;16.85;100.00
23164;BME280;31429;42.674;23.350;2022-07-09T03:53:56;94617.16;;;16.83;100.00
23164;BME280;31429;42.674;23.350;2022-07-09T03:54:56;94610.31;;;16.82;100.00
23164;BME280;31429;42.674;23.350;2022-07-09T03:55:57;94617.28;;;16.94;100.00
23164;BME280;31429;42.674;23.350;2022-07-09T03:56:58;94616.56;;;17.04;100.00
23164;BME280;31429;42.674;23.350;2022-07-09T03:57:58;94621.22;;;17.12;100.00
23164;BME280;31429;42.674;23.350;2022-07-09T03:58:59;94618.63;;;16.99;100.00
23164;BME280;31429;42.674;23.350;2022-07-09T04:00:00;94620.06;;;16.91;100.00
23164;BME280;31429;42.674;23.350;2022-07-09T04:01:00;94619.41;;;16.87;100.00
23164;BME280;31429;42.674;23.350;2022-07-09T04:02:01;94623.09;;;16.83;100.00
23164;BME280;31429;42.674;23.350;2022-07-09T04:03:03;94612.25;;;16.78;100.00
23164;BME280;31429;42.674;23.350;2022-07-09T04:04:04;94620.53;;;16.83;100.00
23164;BME280;31429;42.674;23.350;2022-07-09T04:05:06;94621.66;;;16.79;100.00
23164;BME280;31429;42.674;23.350;2022-07-09T04:06:06;94617.63;;;16.75;100.00
23164;BME280;31429;42.674;23.350;2022-07-09T04:07:07;94615.97;;;16.74;100.00
23164;BME280;31429;42.674;23.350;2022-07-09T04:08:08;94614.38;;;16.72;100.00
23164;BME280;31429;42.674;23.350;2022-07-09T04:09:10;94568.94;;;16.42;100.00
23164;BME280;31429;42.674;23.350;2022-07-09T04:10:11;94619.47;;;16.73;100.00
23164;BME280;31429;42.674;23.350;2022-07-09T04:11:12;94619.47;;;16.73;100.00
23164;BME280;31429;42.674;23.350;2022-07-09T04:12:12;94621.94;;;16.75;100.00
23164;BME280;31429;42.674;23.350;2022-07-09T04:13:13;94622.69;;;16.77;100.00
23164;BME280;31429;42.674;23.350;2022-07-09T04:14:14;94619.28;;;16.76;100.00
23164;BME280;31429;42.674;23.350;2022-07-09T04:15:14;94585.97;;;16.59;100.00
23164;BME280;31429;42.674;23.350;2022-07-09T04:16:15;94619.47;;;16.73;100.00
23164;BME280;31429;42.674;23.350;2022-07-09T04:17:16;94625.59;;;16.58;100.00
23164;BME280;31429;42.674;23.350;2022-07-09T04:18:17;94606.69;;;16.57;100.00
23164;BME280;31429;42.674;23.350;2022-07-09T04:19:17;94615.03;;;16.75;100.00
23164;BME280;31429;42.674;23.350;2022-07-09T04:20:18;94602.69;;;16.66;100.00
23164;BME280;31429;42.674;23.350;2022-07-09T04:21:19;94626.72;;;16.81;100.00
23164;BME280;31429;42.674;23.350;2022-07-09T04:22:22;94592.16;;;16.56;100.00
23164;BME280;31429;42.674;23.350;2022-07-09T04:23:23;94630.78;;;16.85;100.00
23164;BME280;31429;42.674;23.350;2022-07-09T04:24:25;94631.41;;;16.88;100.00
23164;BME280;31429;42.674;23.350;2022-07-09T04:25:26;94601.16;;;16.63;100.00
23164;BME280;31429;42.674;23.350;2022-07-09T04:26:27;94618.94;;;16.68;100.00
23164;BME280;31429;42.674;23.350;2022-07-09T04:27:27;94619.78;;;16.69;100.00
23164;BME280;31429;42.674;23.350;2022-07-09T04:28:28;94624.53;;;16.75;100.00
23164;BME280;31429;42.674;23.350;2022-07-09T04:29:29;94635.69;;;16.75;100.00
23164;BME280;31429;42.674;23.350;2022-07-09T04:30:30;94636.31;;;16.79;100.00
23164;BME280;31429;42.674;23.350;2022-07-09T04:31:30;94639.25;;;16.87;100.00
23164;BME280;31429;42.674;23.350;2022-07-09T04:32:31;94636.97;;;16.82;100.00
23164;BME280;31429;42.674;23.350;2022-07-09T04:33:32;94637.59;;;16.86;100.00
23164;BME280;31429;42.674;23.350;2022-07-09T04:34:32;94635.63;;;16.89;100.00
23164;BME280;31429;42.674;23.350;2022-07-09T04:35:33;94635.75;;;16.88;100.00
23164;BME280;31429;42.674;23.350;2022-07-09T04:36:35;94632.22;;;16.89;100.00
23164;BME280;31429;42.674;23.350;2022-07-09T04:37:36;94626.25;;;16.88;100.00
23164;BME280;31429;42.674;23.350;2022-07-09T04:38:37;94627.69;;;16.92;100.00
23164;BME280;31429;42.674;23.350;2022-07-09T04:39:39;94631.00;;;16.94;100.00
23164;BME280;31429;42.674;23.350;2022-07-09T04:40:40;94632.56;;;16.97;100.00
23164;BME280;31429;42.674;23.350;2022-07-09T04:41:41;94622.25;;;16.97;100.00
23164;BME280;31429;42.674;23.350;2022-07-09T04:42:41;94626.13;;;16.90;100.00
23164;BME280;31429;42.674;23.350;2022-07-09T04:43:42;94630.47;;;16.89;100.00
23164;BME280;31429;42.674;23.350;2022-07-09T04:44:43;94613.88;;;16.93;100.00
23164;BME280;31429;42.674;23.350;2022-07-09T04:45:43;94620.78;;;16.93;100.00
23164;BME280;31429;42.674;23.350;2022-07-09T04:46:44;94594.19;;;16.78;100.00
23164;BME280;31429;42.674;23.350;2022-07-09T04:47:45;94595.16;;;16.90;100.00
23164;BME280;31429;42.674;23.350;2022-07-09T04:48:45;94623.28;;;17.07;100.00
23164;BME280;31429;42.674;23.350;2022-07-09T04:49:46;94621.16;;;17.13;100.00
23164;BME280;31429;42.674;23.350;2022-07-09T04:50:47;94610.69;;;17.02;100.00
23164;BME280;31429;42.674;23.350;2022-07-09T04:51:48;94620.63;;;17.08;100.00
23164;BME280;31429;42.674;23.350;2022-07-09T04:52:48;94606.00;;;16.95;100.00
23164;BME280;31429;42.674;23.350;2022-07-09T04:53:49;94621.03;;;17.02;100.00
23164;BME280;31429;42.674;23.350;2022-07-09T04:54:51;94621.22;;;16.99;100.00
23164;BME280;31429;42.674;23.350;2022-07-09T04:55:52;94616.34;;;16.95;100.00
23164;BME280;31429;42.674;23.350;2022-07-09T04:56:52;94619.25;;;17.03;100.00
23164;BME280;31429;42.674;23.350;2022-07-09T04:57:53;94611.56;;;16.89;100.00
23164;BME280;31429;42.674;23.350;2022-07-09T04:58:54;94624.28;;;16.92;100.00
23164;BME280;31429;42.674;23.350;2022-07-09T04:59:57;94617.38;;;16.92;100.00
23164;BME280;31429;42.674;23.350;2022-07-09T05:00:58;94622.06;;;17.00;100.00
23164;BME280;31429;42.674;23.350;2022-07-09T05:01:59;94622.78;;;17.02;100.00
23164;BME280;31429;42.674;23.350;2022-07-09T05:02:59;94625.03;;;17.06;100.00
23164;BME280;31429;42.674;23.350;2022-07-09T05:04:00;94626.50;;;17.10;100.00
23164;BME280;31429;42.674;23.350;2022-07-09T05:05:01;94620.81;;;17.05;100.00
23164;BME280;31429;42.674;23.350;2022-07-09T05:06:04;94626.72;;;17.20;100.00
23164;BME280;31429;42.674;23.350;2022-07-09T05:07:05;94621.06;;;17.28;100.00
23164;BME280;31429;42.674;23.350;2022-07-09T05:08:06;94631.94;;;17.33;100.00
23164;BME280;31429;42.674;23.350;2022-07-09T05:09:06;94622.09;;;17.25;100.00
23164;BME280;31429;42.674;23.350;2022-07-09T05:10:09;94631.81;;;17.34;100.00
23164;BME280;31429;42.674;23.350;2022-07-09T05:11:10;94624.19;;;17.45;100.00
23164;BME280;31429;42.674;23.350;2022-07-09T05:12:11;94631.00;;;17.34;100.00
23164;BME280;31429;42.674;23.350;2022-07-09T05:13:12;94628.44;;;17.34;100.00
23164;BME280;31429;42.674;23.350;2022-07-09T05:14:13;94635.75;;;17.40;100.00
23164;BME280;31429;42.674;23.350;2022-07-09T05:15:14;94631.72;;;17.36;100.00